createdAt,value
2022-08-31T00:02:35.604Z,54.38
2022-08-31T00:08:55.570Z,54.31
2022-08-31T00:15:18.562Z,54.68
2022-08-31T00:21:38.554Z,55.17
2022-08-31T00:28:01.568Z,55.89
2022-08-31T00:34:21.558Z,59.32
2022-08-31T00:40:45.201Z,67.27
2022-08-31T00:47:04.568Z,70.6
2022-08-31T00:53:27.575Z,76.19
2022-08-31T00:59:47.584Z,79.91
2022-08-31T01:06:10.559Z,81.21
2022-08-31T01:12:30.606Z,81.71
2022-08-31T01:18:53.563Z,81.5
2022-08-31T01:25:13.557Z,82.39
2022-08-31T01:31:36.648Z,82.46
2022-08-31T01:37:56.560Z,82.25
2022-08-31T01:44:19.573Z,81.95
2022-08-31T01:50:39.557Z,82.15
2022-08-31T01:57:02.553Z,82.43
2022-08-31T02:03:22.590Z,83.49
2022-08-31T02:09:45.563Z,83.58
2022-08-31T02:16:05.640Z,83.58
2022-08-31T02:22:28.554Z,84.49
2022-08-31T02:28:48.557Z,84.54
2022-08-31T02:35:11.581Z,84.68
2022-08-31T02:41:31.559Z,85.32
2022-08-31T02:47:54.574Z,85.33
2022-08-31T02:54:14.559Z,85.21
2022-08-31T03:00:37.615Z,85.48
2022-08-31T03:06:57.575Z,85.31
2022-08-31T03:13:20.745Z,85.52
2022-08-31T03:19:40.580Z,85.92
2022-08-31T03:26:03.567Z,85.97
2022-08-31T03:32:23.559Z,85.34
2022-08-31T03:38:46.577Z,85.76
2022-08-31T03:45:06.558Z,85.66
2022-08-31T03:51:29.580Z,85.27
2022-08-31T03:57:49.576Z,85.48
2022-08-31T04:04:12.564Z,85.73
2022-08-31T04:20:56.486Z,86.59
2022-08-31T04:27:19.566Z,86.24
2022-08-31T04:33:39.625Z,85.89
2022-08-31T04:40:02.655Z,86.29
2022-08-31T04:46:22.625Z,85.96
2022-08-31T04:52:57.321Z,86.77
2022-08-31T04:59:05.584Z,86.36
2022-08-31T05:05:28.562Z,85.84
2022-08-31T05:11:48.575Z,86.13
2022-08-31T05:18:11.568Z,86.08
2022-08-31T05:24:31.580Z,85.64
2022-08-31T05:30:54.700Z,85.69
2022-08-31T05:37:14.562Z,86.95
2022-08-31T05:43:37.579Z,87
2022-08-31T05:49:57.562Z,86.29
2022-08-31T05:56:20.586Z,85.9
2022-08-31T06:02:40.565Z,86.47
2022-08-31T06:09:03.566Z,85.24
2022-08-31T06:15:23.598Z,84.79
2022-08-31T06:21:49.774Z,83.95
2022-08-31T06:28:06.584Z,83.86
2022-08-31T06:34:29.588Z,83.95
2022-08-31T06:40:49.675Z,84.2
2022-08-31T06:47:12.587Z,84.63
2022-08-31T06:53:32.572Z,83.71
2022-08-31T06:59:55.592Z,83.8
2022-08-31T07:06:15.585Z,83.44
2022-08-31T07:12:38.571Z,83.72
2022-08-31T07:18:58.631Z,82.91
2022-08-31T07:25:21.565Z,82.31
2022-08-31T07:31:41.583Z,81.35
2022-08-31T07:38:04.571Z,80.84
2022-08-31T07:44:24.561Z,79.92
2022-08-31T07:50:47.692Z,78.36
2022-08-31T07:57:07.562Z,77.09
2022-08-31T08:03:30.567Z,76.45
2022-08-31T08:09:50.566Z,73.53
2022-08-31T08:16:13.597Z,73
2022-08-31T08:22:51.270Z,74.21
2022-08-31T08:28:56.568Z,73.53
2022-08-31T08:35:16.578Z,73.55
2022-08-31T08:41:39.577Z,71.77
2022-08-31T08:47:59.559Z,73.5
2022-08-31T08:54:22.581Z,74.56
2022-08-31T09:00:42.560Z,72.43
2022-08-31T09:07:05.588Z,75.46
2022-08-31T09:13:25.577Z,74.02
2022-08-31T09:19:48.564Z,73.16
2022-08-31T09:26:08.708Z,74.72
2022-08-31T09:32:31.581Z,72.52
2022-08-31T09:38:51.583Z,73.04
2022-08-31T09:45:15.111Z,71.19
2022-08-31T09:51:34.562Z,73.04
2022-08-31T09:57:57.585Z,70.59
2022-08-31T10:21:03.076Z,65.43
2022-08-31T10:27:22.568Z,61.29
2022-08-31T10:33:45.589Z,59.81
2022-08-31T10:40:05.608Z,60.56
2022-08-31T10:46:28.578Z,59.04
2022-08-31T10:52:48.580Z,57.95
2022-08-31T10:59:11.565Z,58.02
2022-08-31T11:05:31.574Z,57.4
2022-08-31T11:11:54.573Z,57.93
2022-08-31T11:18:14.569Z,56.74
2022-08-31T11:24:37.767Z,56.6
2022-08-31T11:30:57.665Z,57.34
2022-08-31T11:37:20.587Z,55.96
2022-08-31T11:43:40.576Z,58.07
2022-08-31T11:50:03.584Z,57.8
2022-08-31T11:56:23.597Z,55.02
2022-08-31T12:02:46.641Z,55.65
2022-08-31T12:09:06.615Z,55.76
2022-08-31T12:15:29.596Z,53.92
2022-08-31T12:21:49.784Z,54.62
2022-08-31T12:28:12.568Z,52.41
2022-08-31T12:34:33.762Z,51.62
2022-08-31T12:40:56.621Z,48.13
2022-08-31T12:47:16.930Z,47.32
2022-08-31T12:53:39.596Z,47.37
2022-08-31T13:00:00.970Z,46.01
2022-08-31T13:06:22.584Z,47.84
2022-08-31T13:12:42.566Z,49.33
2022-08-31T13:19:05.587Z,46.95
2022-08-31T13:25:25.569Z,44.83
2022-08-31T13:31:48.589Z,44.1
2022-08-31T13:38:08.564Z,42.31
2022-08-31T13:44:31.580Z,45.17
2022-08-31T13:50:52.823Z,46.67
2022-08-31T13:57:14.587Z,44.59
2022-08-31T14:03:34.573Z,45.1
2022-08-31T14:09:57.560Z,41.35
2022-08-31T14:16:17.658Z,41.85
2022-08-31T14:22:40.571Z,42.15
2022-08-31T14:29:00.640Z,44.48
2022-08-31T14:35:24.574Z,47.44
2022-08-31T14:41:44.567Z,46.08
2022-08-31T14:48:07.599Z,45.92
2022-08-31T14:54:27.568Z,47.29
2022-08-31T15:00:53.617Z,45.75
2022-08-31T15:07:10.574Z,47.71
2022-08-31T15:13:33.584Z,46.36
2022-08-31T15:19:53.571Z,46.71
2022-08-31T15:26:16.656Z,47.74
2022-08-31T15:32:36.698Z,48.5
2022-08-31T15:38:59.743Z,50.38
2022-08-31T16:01:48.155Z,45.12
2022-08-31T16:08:08.624Z,45.87
2022-08-31T16:14:31.633Z,45.54
2022-08-31T16:20:51.624Z,46.47
2022-08-31T16:27:16.006Z,47.59
2022-08-31T16:33:34.634Z,47.9
2022-08-31T16:39:57.622Z,48.89
2022-08-31T16:46:39.471Z,50.66
2022-08-31T16:52:40.625Z,49.82
2022-08-31T16:59:00.630Z,51.57
2022-08-31T17:05:23.652Z,50.28
2022-08-31T17:11:43.624Z,52.09
2022-08-31T17:18:06.645Z,53.55
2022-08-31T17:24:26.618Z,53.07
2022-08-31T17:30:49.633Z,54.8
2022-08-31T17:37:09.639Z,54.94
2022-08-31T17:43:32.622Z,55.63
2022-08-31T17:49:52.824Z,55.25
2022-08-31T17:56:15.620Z,55.17
2022-08-31T18:02:35.617Z,56.07
2022-08-31T18:08:58.628Z,56.09
2022-08-31T18:15:18.615Z,56.6
2022-08-31T18:21:41.630Z,57.65
2022-08-31T18:28:01.635Z,57.37
2022-08-31T18:34:25.588Z,59.25
2022-08-31T18:40:45.703Z,59.23
2022-08-31T18:47:08.619Z,60.19
2022-08-31T18:53:30.085Z,58.92
2022-08-31T18:59:51.622Z,59.8
2022-08-31T19:06:11.638Z,58.86
2022-08-31T19:12:35.741Z,58.66
2022-08-31T19:18:55.644Z,58.83
2022-08-31T19:25:18.630Z,58.31
2022-08-31T19:31:38.767Z,57.89
2022-08-31T19:38:02.639Z,57.36
2022-08-31T19:44:25.119Z,57.09
2022-08-31T19:50:48.632Z,56.51
2022-08-31T19:57:08.612Z,56.44
2022-08-31T20:03:31.631Z,56.05
2022-08-31T20:09:51.631Z,57.01
2022-08-31T20:16:14.692Z,56.26
2022-08-31T20:22:34.643Z,57.1
2022-08-31T20:28:57.613Z,56.41
2022-08-31T20:35:17.616Z,57.31
2022-08-31T20:41:40.626Z,57.73
2022-08-31T20:48:00.561Z,58.21
2022-08-31T20:54:23.582Z,58.39
2022-08-31T21:00:43.564Z,59.17
2022-08-31T21:07:06.575Z,59.41
2022-08-31T21:13:26.575Z,59.75
2022-08-31T21:19:49.564Z,60.22
2022-08-31T21:26:09.594Z,60.48
2022-08-31T21:32:32.572Z,61.07
2022-08-31T21:48:58.473Z,61.31
2022-08-31T21:55:18.537Z,62.38
2022-08-31T22:20:52.554Z,63.69
2022-08-31T22:27:12.573Z,64.04
2022-08-31T22:33:35.569Z,64.3
2022-08-31T22:39:55.550Z,64.15
2022-08-31T22:46:18.616Z,64.52
2022-08-31T22:52:38.557Z,63.9
2022-08-31T22:59:01.586Z,64
2022-08-31T23:05:21.556Z,63.02
2022-08-31T23:11:44.572Z,63.18
2022-08-31T23:18:04.553Z,63.63
2022-08-31T23:24:27.572Z,63.33
2022-08-31T23:30:47.564Z,64.35
2022-08-31T23:37:10.651Z,65.43
2022-08-31T23:43:30.585Z,65.67
2022-08-31T23:49:53.602Z,65.87
2022-08-31T23:56:13.601Z,66.35
